Time;durP1;ratioP1;P1;durP2;ratioP2;P2;SDS_P1;SDS_P2;PMS_P1;PMS_P2;Temp;Humidity;BMP_temperature;BMP_pressure;BME280_temperature;BME280_humidity;BME280_pressure;Samples;Min_cycle;Max_cycle;Signal;HPM_P1;HPM_P2
2023/04/18 00:00:48;;;;;;;0.32;0.32;;;7.10;1.00;;;;;;5074164;28;20157;-85
2023/04/18 00:03:14;;;;;;;0.13;0.10;;;7.10;1.00;;;;;;5040662;28;20387;-85
2023/04/18 00:05:40;;;;;;;0.20;0.10;;;7.10;1.00;;;;;;5074186;28;20044;-85
2023/04/18 00:08:06;;;;;;;1.65;0.63;;;7.10;1.00;;;;;;5074004;28;20051;-85
2023/04/18 00:10:32;;;;;;;0.00;0.00;;;7.10;1.00;;;;;;5024335;28;20044;-85
2023/04/18 00:12:57;;;;;;;0.00;0.00;;;7.00;1.00;;;;;;5024193;28;20208;-85
2023/04/18 00:15:23;;;;;;;0.30;0.20;;;7.00;1.00;;;;;;5057007;28;20056;-85
2023/04/18 00:17:49;;;;;;;1.45;0.00;;;7.00;1.00;;;;;;5024293;28;20040;-85
2023/04/18 00:20:15;;;;;;;0.10;0.10;;;6.90;1.00;;;;;;5024127;28;20041;-85
2023/04/18 00:22:41;;;;;;;0.17;0.10;;;6.90;1.00;;;;;;5040774;28;20451;-85
2023/04/18 00:25:09;;;;;;;0.85;0.00;;;6.90;1.00;;;;;;5040951;28;20173;-85
2023/04/18 00:27:35;;;;;;;0.17;0.17;;;6.90;1.00;;;;;;5056988;28;20076;-85
2023/04/18 00:30:01;;;;;;;1.90;0.20;;;6.90;1.00;;;;;;5056865;28;20052;-84
2023/04/18 00:32:27;;;;;;;2.00;1.08;;;6.90;1.00;;;;;;5073221;28;20094;-85
2023/04/18 00:34:52;;;;;;;0.57;0.10;;;6.90;1.00;;;;;;5040438;28;20087;-84
2023/04/18 00:37:18;;;;;;;0.13;0.13;;;6.80;1.00;;;;;;5056891;28;20485;-84
2023/04/18 00:39:44;;;;;;;0.85;0.40;;;6.90;1.00;;;;;;5023457;28;20060;-84
2023/04/18 00:42:09;;;;;;;0.22;0.20;;;6.80;1.00;;;;;;5023630;28;20169;-85
2023/04/18 00:44:35;;;;;;;2.63;0.32;;;6.80;1.00;;;;;;5056661;28;20044;-84
2023/04/18 00:47:01;;;;;;;0.50;0.40;;;6.80;1.00;;;;;;5040162;28;20048;-85
2023/04/18 00:49:27;;;;;;;2.72;0.55;;;6.80;1.00;;;;;;5073191;28;20049;-85
2023/04/18 00:51:54;;;;;;;0.20;0.17;;;6.70;1.00;;;;;;5056670;28;20477;-85
2023/04/18 00:54:21;;;;;;;0.28;0.28;;;6.70;1.00;;;;;;5056355;28;20135;-85
2023/04/18 00:56:47;;;;;;;2.00;0.90;;;6.70;1.00;;;;;;5056384;28;20499;-85
2023/04/18 00:59:13;;;;;;;0.22;0.22;;;6.70;1.00;;;;;;5055970;28;20044;-84
2023/04/18 01:01:39;;;;;;;0.40;0.30;;;6.70;1.00;;;;;;5056479;28;20052;-84
2023/04/18 01:04:05;;;;;;;0.30;0.00;;;6.70;1.00;;;;;;5056009;28;20090;-85
2023/04/18 01:06:31;;;;;;;1.10;0.55;;;6.70;1.00;;;;;;5039781;28;20051;-85
2023/04/18 01:08:57;;;;;;;0.20;0.10;;;6.70;1.00;;;;;;5056341;28;20052;-85
2023/04/18 01:11:23;;;;;;;0.40;0.35;;;6.80;1.00;;;;;;5023186;28;20036;-85
2023/04/18 01:14:19;;;;;;;0.10;0.10;;;6.70;1.00;;;;;;5056025;28;20052;-85
2023/04/18 01:16:47;;;;;;;0.20;0.20;;;6.60;1.00;;;;;;5043407;28;20139;-85
2023/04/18 01:19:13;;;;;;;3.50;0.10;;;6.60;1.00;;;;;;5055821;28;20056;-85
2023/04/18 01:21:42;;;;;;;0.32;0.15;;;6.60;1.00;;;;;;5056009;28;20457;-85
2023/04/18 01:24:16;;;;;;;0.00;0.00;;;6.50;1.00;;;;;;5039685;28;20190;-84
2023/04/18 01:26:42;;;;;;;1.02;0.40;;;6.60;1.00;;;;;;5055804;28;20052;-85
2023/04/18 01:29:09;;;;;;;0.00;0.00;;;6.40;1.00;;;;;;5055972;28;20040;-85
2023/04/18 01:31:36;;;;;;;1.73;0.15;;;6.50;1.00;;;;;;5056235;28;20397;-84
2023/04/18 01:34:02;;;;;;;0.00;0.00;;;6.40;1.00;;;;;;5055535;28;20056;-85
2023/04/18 01:36:28;;;;;;;0.10;0.10;;;6.30;1.00;;;;;;5022527;28;20133;-85
2023/04/18 01:38:54;;;;;;;0.10;0.10;;;6.40;1.00;;;;;;5055628;28;20070;-85
2023/04/18 01:41:20;;;;;;;0.00;0.00;;;6.40;1.00;;;;;;5055489;28;20086;-85
2023/04/18 01:43:45;;;;;;;1.38;0.35;;;6.40;1.00;;;;;;5039200;28;20609;-85
2023/04/18 01:46:11;;;;;;;3.53;0.38;;;6.60;1.00;;;;;;5055400;28;20130;-84
2023/04/18 01:48:37;;;;;;;0.10;0.10;;;6.40;1.00;;;;;;5022880;28;20041;-85
2023/04/18 01:51:03;;;;;;;0.30;0.30;;;6.40;1.00;;;;;;5038985;28;20404;-85
2023/04/18 01:53:30;;;;;;;0.10;0.10;;;6.30;1.00;;;;;;5055600;28;20472;-85
2023/04/18 01:55:57;;;;;;;0.30;0.08;;;6.30;3.80;;;;;;5055558;28;20571;-85
2023/04/18 01:58:24;;;;;;;0.40;0.10;;;6.30;1.00;;;;;;5039110;28;20052;-85
2023/04/18 02:00:51;;;;;;;0.55;0.52;;;6.20;5.90;;;;;;5072135;28;20561;-84
2023/04/18 02:03:16;;;;;;;0.00;0.00;;;6.30;8.00;;;;;;5055347;28;20048;-84
2023/04/18 02:05:42;;;;;;;1.25;1.08;;;6.20;3.00;;;;;;5038809;28;20549;-85
2023/04/18 02:08:10;;;;;;;0.32;0.20;;;6.30;12.90;;;;;;5038627;28;20040;-85
2023/04/18 02:10:36;;;;;;;0.00;0.00;;;6.30;12.80;;;;;;5055831;28;20041;-84
2023/04/18 02:13:02;;;;;;;1.08;0.08;;;6.20;10.00;;;;;;5038911;28;20600;-85
2023/04/18 02:15:27;;;;;;;0.20;0.20;;;6.20;18.60;;;;;;5055353;28;20048;-85
2023/04/18 02:17:54;;;;;;;0.20;0.20;;;6.20;19.20;;;;;;5038702;28;20063;-84
2023/04/18 02:20:20;;;;;;;0.10;0.10;;;6.20;20.20;;;;;;5071823;28;20139;-85
2023/04/18 02:22:46;;;;;;;0.10;0.10;;;6.20;27.20;;;;;;5072178;28;20482;-85
2023/04/18 02:25:12;;;;;;;0.32;0.20;;;6.20;26.80;;;;;;5055239;28;20053;-84
2023/04/18 02:27:38;;;;;;;0.17;0.17;;;6.20;29.10;;;;;;5038774;28;20040;-85
2023/04/18 02:30:05;;;;;;;0.28;0.00;;;6.20;23.90;;;;;;5055235;28;20055;-84
2023/04/18 02:32:30;;;;;;;0.10;0.03;;;6.20;25.90;;;;;;5054716;28;20056;-84
2023/04/18 02:34:56;;;;;;;1.25;0.93;;;6.20;25.40;;;;;;5022355;28;20040;-85
2023/04/18 02:37:22;;;;;;;0.20;0.20;;;6.60;32.50;;;;;;5071916;28;20124;-84
2023/04/18 02:39:48;;;;;;;0.38;0.00;;;6.10;31.10;;;;;;5055487;28;20500;-85
2023/04/18 02:42:13;;;;;;;0.10;0.00;;;6.20;43.00;;;;;;5038792;28;20052;-84
2023/04/18 02:44:39;;;;;;;3.05;1.35;;;6.10;31.60;;;;;;5055317;28;20127;-84
2023/04/18 02:47:05;;;;;;;0.20;0.20;;;6.10;38.80;;;;;;5038391;28;20560;-84
2023/04/18 02:49:31;;;;;;;0.40;0.20;;;6.20;47.90;;;;;;5038423;28;20064;-85
2023/04/18 02:51:57;;;;;;;0.32;0.13;;;6.10;52.30;;;;;;5039114;28;20045;-85
2023/04/18 02:54:23;;;;;;;0.70;0.38;;;6.10;43.90;;;;;;5038608;28;20399;-84
2023/04/18 02:56:53;;;;;;;5.07;0.32;;;6.10;48.00;;;;;;5038903;28;20496;-84
2023/04/18 02:59:18;;;;;;;0.47;0.30;;;6.10;53.90;;;;;;5058273;28;20439;-84
2023/04/18 03:01:44;;;;;;;0.10;0.10;;;6.10;57.00;;;;;;5042083;28;20063;-84
2023/04/18 03:04:11;;;;;;;0.88;0.55;;;6.10;57.50;;;;;;5025021;28;20429;-84
2023/04/18 03:06:37;;;;;;;0.50;0.50;;;6.10;57.50;;;;;;5058598;28;20044;-85
2023/04/18 03:09:03;;;;;;;0.10;0.10;;;6.10;53.00;;;;;;5058335;28;20079;-84
2023/04/18 03:11:29;;;;;;;0.30;0.30;;;6.10;51.50;;;;;;5075317;28;20209;-84
2023/04/18 03:13:55;;;;;;;1.10;0.65;;;6.10;56.40;;;;;;5058622;28;20123;-84
2023/04/18 03:16:21;;;;;;;0.10;0.10;;;6.10;61.40;;;;;;5074993;28;20044;-84
2023/04/18 03:18:47;;;;;;;0.80;0.52;;;6.20;62.60;;;;;;5074755;28;20040;-85
2023/04/18 03:21:13;;;;;;;1.95;0.52;;;6.20;61.70;;;;;;5058325;28;20055;-85
2023/04/18 03:23:39;;;;;;;0.65;0.20;;;6.10;59.00;;;;;;5058524;28;20047;-84
2023/04/18 03:26:06;;;;;;;0.25;0.25;;;6.10;64.80;;;;;;5058238;28;20044;-85
2023/04/18 03:28:32;;;;;;;4.97;0.77;;;6.20;63.20;;;;;;5058548;28;20135;-84
2023/04/18 03:30:59;;;;;;;1.27;0.10;;;6.20;63.50;;;;;;5058443;28;20048;-84
2023/04/18 03:33:24;;;;;;;0.43;0.10;;;6.20;66.00;;;;;;5041022;28;20095;-84
2023/04/18 03:35:50;;;;;;;0.45;0.45;;;6.20;67.10;;;;;;5058138;28;20079;-85
2023/04/18 03:38:16;;;;;;;0.20;0.20;;;6.70;67.70;;;;;;5074741;28;20036;-84
2023/04/18 03:40:43;;;;;;;1.17;0.20;;;6.30;62.60;;;;;;5057185;28;20053;-85
2023/04/18 03:43:09;;;;;;;0.70;0.40;;;6.40;67.00;;;;;;5042012;28;20051;-85
2023/04/18 03:45:35;;;;;;;0.20;0.20;;;6.40;66.40;;;;;;5074491;28;20480;-84
2023/04/18 03:48:01;;;;;;;2.00;0.80;;;6.40;68.00;;;;;;5024653;28;20135;-85
2023/04/18 03:50:27;;;;;;;0.10;0.10;;;6.50;69.20;;;;;;5058430;28;20166;-85
2023/04/18 03:52:53;;;;;;;0.00;0.00;;;6.50;71.00;;;;;;5041626;28;20059;-84
2023/04/18 03:55:19;;;;;;;1.10;0.52;;;6.60;70.30;;;;;;5057737;28;20093;-84
2023/04/18 03:57:46;;;;;;;0.85;0.47;;;6.70;66.80;;;;;;5057888;28;20044;-84
2023/04/18 04:00:12;;;;;;;1.42;0.35;;;6.60;69.70;;;;;;5057572;28;20056;-84
2023/04/18 04:02:38;;;;;;;0.68;0.20;;;6.60;69.30;;;;;;5057106;28;20067;-84
2023/04/18 04:05:04;;;;;;;0.40;0.08;;;6.60;72.10;;;;;;5073988;28;20462;-84
2023/04/18 04:07:31;;;;;;;2.22;0.60;;;6.60;68.90;;;;;;5057551;28;20143;-84
2023/04/18 04:09:57;;;;;;;2.03;0.82;;;6.60;71.80;;;;;;5057640;28;20044;-84
2023/04/18 04:12:24;;;;;;;1.00;0.43;;;6.60;69.50;;;;;;5040735;28;20377;-84
2023/04/18 04:14:50;;;;;;;0.85;0.30;;;6.60;72.90;;;;;;5073999;28;20058;-84
2023/04/18 04:17:16;;;;;;;0.00;0.00;;;6.70;72.80;;;;;;5056988;28;20048;-84
2023/04/18 04:19:41;;;;;;;0.25;0.25;;;6.70;71.20;;;;;;5073689;28;20049;-84
2023/04/18 04:22:07;;;;;;;0.63;0.13;;;6.70;72.20;;;;;;5073900;28;20051;-84
2023/04/18 04:24:34;;;;;;;0.10;0.10;;;6.70;71.40;;;;;;5023906;28;20400;-84
2023/04/18 04:27:02;;;;;;;0.52;0.52;;;6.80;71.60;;;;;;5057452;28;20062;-84
2023/04/18 04:29:28;;;;;;;0.17;0.17;;;6.70;72.50;;;;;;5056888;28;20037;-84
2023/04/18 04:31:54;;;;;;;1.15;0.55;;;6.80;72.40;;;;;;5040328;28;20060;-84
2023/04/18 04:34:22;;;;;;;0.20;0.20;;;6.70;72.90;;;;;;5039726;28;20470;-88
2023/04/18 04:37:02;;;;;;;0.55;0.52;;;6.70;73.60;;;;;;5057387;28;20053;-92
2023/04/18 04:39:28;;;;;;;1.55;0.73;;;6.70;77.00;;;;;;5056490;28;20049;-84
2023/04/18 04:41:54;;;;;;;0.40;0.22;;;6.80;76.20;;;;;;5056487;28;20139;-84
2023/04/18 04:44:20;;;;;;;2.72;0.17;;;6.70;75.60;;;;;;5040252;28;20078;-85
2023/04/18 04:46:46;;;;;;;0.65;0.47;;;6.80;77.60;;;;;;5040329;28;20128;-84
2023/04/18 04:49:12;;;;;;;1.17;0.35;;;6.70;80.20;;;;;;5040039;28;20109;-85
2023/04/18 04:51:39;;;;;;;0.68;0.10;;;6.70;82.90;;;;;;5039946;28;20052;-85
2023/04/18 04:54:05;;;;;;;0.10;0.10;;;6.70;82.10;;;;;;5056673;28;20506;-88
2023/04/18 04:56:31;;;;;;;0.40;0.17;;;6.70;83.40;;;;;;5056600;28;20040;-87
2023/04/18 04:58:57;;;;;;;0.13;0.13;;;6.70;86.20;;;;;;5056096;28;20041;-86
2023/04/18 05:01:23;;;;;;;0.88;0.47;;;6.70;86.00;;;;;;5056001;28;20051;-87
2023/04/18 05:03:50;;;;;;;1.00;0.45;;;6.70;85.60;;;;;;5056025;28;20074;-87
2023/04/18 05:06:21;;;;;;;3.10;0.30;;;6.70;86.70;;;;;;5072762;28;20511;-85
2023/04/18 05:08:47;;;;;;;0.20;0.20;;;6.80;89.20;;;;;;5057071;28;20059;-84
2023/04/18 05:11:13;;;;;;;0.03;0.00;;;6.80;88.50;;;;;;5039592;28;20052;-84
2023/04/18 05:13:38;;;;;;;1.95;0.47;;;6.80;90.30;;;;;;5056196;28;20041;-84
2023/04/18 05:16:04;;;;;;;0.57;0.57;;;6.80;89.80;;;;;;5039645;28;20071;-84
2023/04/18 05:18:30;;;;;;;0.25;0.25;;;6.70;90.60;;;;;;5056259;28;20048;-84
2023/04/18 05:20:56;;;;;;;0.50;0.45;;;6.80;91.20;;;;;;5055615;28;20131;-84
2023/04/18 05:23:22;;;;;;;1.45;0.95;;;6.70;91.10;;;;;;5039758;28;20047;-84
2023/04/18 05:25:47;;;;;;;0.75;0.22;;;6.70;90.70;;;;;;5039514;28;20040;-83
2023/04/18 05:28:13;;;;;;;2.92;1.25;;;6.90;90.90;;;;;;5072499;28;20049;-83
2023/04/18 05:30:39;;;;;;;1.08;0.52;;;6.80;91.00;;;;;;5056025;28;20055;-82
2023/04/18 05:33:05;;;;;;;2.55;0.98;;;6.90;90.90;;;;;;5055517;28;20049;-86
2023/04/18 05:35:31;;;;;;;0.43;0.13;;;6.80;91.10;;;;;;5055852;28;20052;-85
2023/04/18 05:37:57;;;;;;;0.75;0.20;;;6.80;90.70;;;;;;5055965;28;20129;-86
2023/04/18 05:40:26;;;;;;;0.32;0.32;;;6.90;90.80;;;;;;5072125;28;20053;-85
2023/04/18 05:42:52;;;;;;;0.73;0.25;;;6.80;91.40;;;;;;5055990;28;20052;-86
2023/04/18 05:45:17;;;;;;;0.40;0.40;;;6.80;91.00;;;;;;5055841;28;20044;-85
2023/04/18 05:47:43;;;;;;;5.15;2.08;;;6.80;91.40;;;;;;5056025;28;20040;-89
2023/04/18 05:50:09;;;;;;;1.15;0.73;;;6.70;91.30;;;;;;5022959;28;20535;-88
2023/04/18 05:52:37;;;;;;;0.65;0.55;;;6.80;91.20;;;;;;5039063;28;20488;-85
2023/04/18 05:55:04;;;;;;;0.13;0.13;;;6.80;91.00;;;;;;5039241;28;20060;-85
2023/04/18 05:57:30;;;;;;;2.28;0.68;;;6.80;91.50;;;;;;5039500;28;20049;-86
2023/04/18 05:59:55;;;;;;;1.05;0.85;;;6.90;91.30;;;;;;5072556;28;20362;-85
2023/04/18 06:02:21;;;;;;;0.90;0.77;;;6.80;91.30;;;;;;5022259;28;20044;-85
2023/04/18 06:04:47;;;;;;;1.10;0.47;;;6.90;90.80;;;;;;5055483;28;20044;-87
2023/04/18 06:07:16;;;;;;;0.80;0.47;;;6.90;91.20;;;;;;5039705;28;20118;-84
2023/04/18 06:09:42;;;;;;;1.38;0.73;;;6.90;90.60;;;;;;5038896;28;20075;-89
2023/04/18 06:12:08;;;;;;;0.13;0.13;;;6.90;90.60;;;;;;5055618;28;20117;-85
2023/04/18 06:14:33;;;;;;;0.38;0.20;;;7.10;90.40;;;;;;5051021;28;20051;-86
2023/04/18 06:16:59;;;;;;;0.17;0.17;;;7.10;90.50;;;;;;5053496;28;20048;-85
2023/04/18 06:19:25;;;;;;;0.63;0.40;;;7.30;88.10;;;;;;5069667;28;20127;-86
2023/04/18 06:21:53;;;;;;;1.75;0.22;;;7.30;88.20;;;;;;5070161;28;20040;-85
2023/04/18 06:24:18;;;;;;;0.57;0.30;;;7.50;86.90;;;;;;5053673;28;20381;-86
2023/04/18 06:26:44;;;;;;;0.63;0.40;;;7.70;84.10;;;;;;5035251;28;20157;-86
2023/04/18 06:29:10;;;;;;;0.50;0.50;;;7.80;82.00;;;;;;5018191;28;20040;-86
2023/04/18 06:31:36;;;;;;;0.73;0.43;;;7.90;77.00;;;;;;5040182;28;20048;-83
2023/04/18 06:34:02;;;;;;;0.52;0.13;;;8.00;78.40;;;;;;5058811;28;20044;-84
2023/04/18 06:36:27;;;;;;;0.25;0.25;;;8.10;75.10;;;;;;5059226;28;20049;-82
2023/04/18 06:38:53;;;;;;;1.65;0.68;;;8.40;73.10;;;;;;5042431;28;20472;-83
2023/04/18 06:41:19;;;;;;;0.65;0.45;;;8.80;69.00;;;;;;5075399;28;20061;-83
2023/04/18 06:43:44;;;;;;;0.95;0.85;;;9.10;64.00;;;;;;5042488;28;20135;-83
2023/04/18 06:46:10;;;;;;;0.60;0.60;;;9.40;62.40;;;;;;5042486;28;20090;-83
2023/04/18 06:48:36;;;;;;;0.40;0.35;;;9.40;65.30;;;;;;5058974;28;20446;-83
2023/04/18 06:51:02;;;;;;;1.23;0.70;;;9.60;59.10;;;;;;5042208;28;20048;-83
2023/04/18 06:53:27;;;;;;;0.43;0.10;;;10.00;62.50;;;;;;5058972;28;20135;-83
2023/04/18 06:55:53;;;;;;;0.10;0.08;;;10.20;80.60;;;;;;5025594;28;20040;-83
2023/04/18 06:58:19;;;;;;;0.65;0.32;;;10.20;40.50;;;;;;5075480;28;20113;-83
2023/04/18 07:00:47;;;;;;;0.35;0.30;;;10.20;40.20;;;;;;5075433;28;20506;-83
2023/04/18 07:03:13;;;;;;;0.40;0.40;;;10.20;39.80;;;;;;5042146;28;20048;-83
2023/04/18 07:05:39;;;;;;;1.00;0.43;;;10.10;39.30;;;;;;5042113;28;20576;-84
2023/04/18 07:08:05;;;;;;;0.93;0.90;;;10.00;37.50;;;;;;5058729;28;20088;-83
2023/04/18 07:10:31;;;;;;;1.63;0.47;;;9.70;29.00;;;;;;5075332;28;20094;-83
2023/04/18 07:12:56;;;;;;;0.30;0.30;;;9.60;32.60;;;;;;5058655;28;20044;-83
2023/04/18 07:15:22;;;;;;;0.30;0.15;;;9.50;34.50;;;;;;5059079;28;20048;-83
2023/04/18 07:17:48;;;;;;;1.58;0.30;;;9.80;33.80;;;;;;5041811;28;20086;-83
2023/04/18 07:20:14;;;;;;;0.47;0.47;;;10.10;27.90;;;;;;5025393;28;20549;-83
2023/04/18 07:22:40;;;;;;;0.60;0.60;;;10.80;27.00;;;;;;5041587;28;20055;-84
2023/04/18 07:25:06;;;;;;;1.52;1.33;;;11.50;3.20;;;;;;5041662;28;20107;-83
2023/04/18 07:27:34;;;;;;;0.25;0.20;;;11.70;1.00;;;;;;5058375;28;20492;-83
2023/04/18 07:30:00;;;;;;;0.30;0.20;;;11.60;1.00;;;;;;5058370;28;20194;-83
2023/04/18 07:32:25;;;;;;;8.55;1.45;;;11.30;1.00;;;;;;5058061;28;20140;-85
2023/04/18 07:34:51;;;;;;;0.75;0.63;;;11.10;1.00;;;;;;5041241;28;20139;-84
2023/04/18 07:37:17;;;;;;;0.57;0.10;;;10.90;1.00;;;;;;5041339;28;20131;-83
2023/04/18 07:39:43;;;;;;;0.10;0.10;;;11.20;1.00;;;;;;5024588;28;20051;-84
2023/04/18 07:42:10;;;;;;;2.45;0.45;;;11.80;1.00;;;;;;5040938;28;20049;-83
2023/04/18 07:44:35;;;;;;;0.55;0.55;;;12.00;1.00;;;;;;5025053;28;20048;-83
2023/04/18 07:47:02;;;;;;;0.70;0.70;;;11.50;1.00;;;;;;5040918;28;20074;-84
2023/04/18 07:49:27;;;;;;;0.45;0.45;;;11.00;1.00;;;;;;5074803;28;20048;-83
2023/04/18 07:51:53;;;;;;;0.68;0.28;;;10.90;1.00;;;;;;5057799;28;20052;-83
2023/04/18 07:54:19;;;;;;;0.63;0.63;;;10.90;1.00;;;;;;5041203;28;20045;-83
2023/04/18 07:56:44;;;;;;;1.85;0.75;;;11.30;1.00;;;;;;5058350;28;20145;-83
2023/04/18 07:59:10;;;;;;;1.25;0.43;;;11.60;1.00;;;;;;5057591;28;20041;-83
2023/04/18 08:01:36;;;;;;;4.35;0.43;;;11.70;1.00;;;;;;5040871;28;20045;-83
2023/04/18 08:04:01;;;;;;;0.85;0.22;;;11.90;1.00;;;;;;5056845;28;20040;-83
2023/04/18 08:06:27;;;;;;;1.65;0.45;;;11.80;1.00;;;;;;5024601;28;20060;-83
2023/04/18 08:08:53;;;;;;;2.15;0.45;;;12.00;1.00;;;;;;5074372;28;20053;-83
2023/04/18 08:11:19;;;;;;;0.30;0.20;;;11.90;1.00;;;;;;5057426;28;20052;-84
2023/04/18 08:13:45;;;;;;;0.32;0.32;;;11.90;1.00;;;;;;5024749;28;20048;-84
2023/04/18 08:16:10;;;;;;;0.00;0.00;;;11.80;1.00;;;;;;5024410;28;20400;-83
2023/04/18 08:18:36;;;;;;;0.40;0.40;;;11.50;1.00;;;;;;5040709;28;20476;-84
2023/04/18 08:21:02;;;;;;;0.52;0.52;;;11.30;1.00;;;;;;5040624;28;20060;-84
2023/04/18 08:23:28;;;;;;;0.08;0.08;;;11.20;1.00;;;;;;5040727;28;20048;-84
2023/04/18 08:25:53;;;;;;;0.20;0.20;;;10.90;1.00;;;;;;5024150;28;20554;-84
2023/04/18 08:28:19;;;;;;;2.15;0.40;;;10.80;1.00;;;;;;5024542;28;20055;-84
2023/04/18 08:30:47;;;;;;;0.22;0.13;;;10.80;1.00;;;;;;5040856;28;20079;-84
2023/04/18 08:33:14;;;;;;;0.20;0.20;;;10.80;1.00;;;;;;5073248;28;20045;-84
2023/04/18 08:35:40;;;;;;;0.08;0.00;;;10.80;1.00;;;;;;5073520;28;20056;-84
2023/04/18 08:38:06;;;;;;;0.13;0.13;;;10.70;1.00;;;;;;5040402;28;20044;-84
2023/04/18 08:40:32;;;;;;;0.15;0.15;;;10.80;1.00;;;;;;5040261;28;20438;-84
2023/04/18 08:43:03;;;;;;;1.92;0.43;;;10.70;1.00;;;;;;5073608;28;20186;-84
2023/04/18 08:45:30;;;;;;;0.20;0.20;;;10.80;1.00;;;;;;5040594;28;20049;-84
2023/04/18 08:47:57;;;;;;;0.82;0.75;;;10.80;1.00;;;;;;5040507;28;20037;-85
2023/04/18 08:50:23;;;;;;;7.20;0.75;;;10.80;1.00;;;;;;5040167;28;20059;-84
2023/04/18 08:52:50;;;;;;;0.20;0.20;;;10.90;1.00;;;;;;5040118;28;20056;-84
2023/04/18 08:55:17;;;;;;;0.35;0.22;;;11.00;1.00;;;;;;5072744;28;20435;-84
2023/04/18 08:57:43;;;;;;;0.63;0.63;;;11.10;1.00;;;;;;5056703;28;20045;-84
2023/04/18 09:00:10;;;;;;;2.92;0.63;;;11.10;1.00;;;;;;5056510;28;20037;-84
2023/04/18 09:02:43;;;;;;;0.25;0.25;;;11.30;1.00;;;;;;5023190;28;20488;-84
2023/04/18 09:05:20;;;;;;;0.68;0.57;;;11.60;1.00;;;;;;5040311;28;20105;-84
2023/04/18 09:07:51;;;;;;;1.00;0.60;;;11.70;1.00;;;;;;5073263;28;20396;-84
2023/04/18 09:10:31;;;;;;;0.38;0.38;;;11.90;1.00;;;;;;5073021;28;20044;-84
2023/04/18 09:12:58;;;;;;;1.65;1.00;;;12.10;1.00;;;;;;5056346;28;20049;-84
2023/04/18 09:15:27;;;;;;;0.28;0.10;;;12.30;1.00;;;;;;5072793;28;20044;-84
2023/04/18 09:17:58;;;;;;;1.13;0.88;;;12.50;1.00;;;;;;5056399;28;20094;-84
2023/04/18 09:20:29;;;;;;;0.57;0.57;;;12.90;1.00;;;;;;5056456;28;20066;-83
2023/04/18 09:22:59;;;;;;;1.95;0.47;;;13.10;1.00;;;;;;5072939;28;20048;-83
2023/04/18 09:25:39;;;;;;;0.75;0.63;;;13.30;1.00;;;;;;5056523;28;20555;-84
2023/04/18 09:28:27;;;;;;;1.15;0.40;;;13.60;1.00;;;;;;5073656;28;20438;-84
2023/04/18 09:30:55;;;;;;;0.30;0.30;;;13.10;1.00;;;;;;5072607;28;20403;-84
2023/04/18 09:33:31;;;;;;;0.85;0.63;;;12.80;99.90;;;;;;5038922;28;20079;-84
2023/04/18 09:36:15;;;;;;;0.40;0.30;;;12.70;99.90;;;;;;5072813;28;20052;-84
2023/04/18 09:38:41;;;;;;;0.75;0.75;;;12.60;1.00;;;;;;5056360;28;20067;-84
2023/04/18 09:41:08;;;;;;;0.63;0.60;;;12.40;1.00;;;;;;5072175;28;20052;-84
2023/04/18 09:43:34;;;;;;;0.20;0.20;;;12.40;1.00;;;;;;5055930;28;20496;-84
2023/04/18 09:46:01;;;;;;;0.93;0.45;;;12.30;1.00;;;;;;5022890;28;20049;-84
2023/04/18 09:48:27;;;;;;;0.38;0.28;;;12.10;1.00;;;;;;5039129;28;20040;-84
2023/04/18 09:50:54;;;;;;;0.57;0.57;;;12.10;1.00;;;;;;5022584;28;20406;-83
2023/04/18 09:53:20;;;;;;;1.30;0.10;;;12.50;1.00;;;;;;5056441;28;20102;-84
2023/04/18 09:55:51;;;;;;;0.60;0.60;;;12.80;1.00;;;;;;5055741;28;20044;-84
2023/04/18 09:58:21;;;;;;;0.63;0.45;;;13.20;1.00;;;;;;5055984;28;20040;-84
2023/04/18 10:00:48;;;;;;;0.75;0.75;;;13.60;99.90;;;;;;5055733;28;20102;-84
2023/04/18 10:03:17;;;;;;;0.55;0.55;;;13.80;99.90;;;;;;5071799;28;20484;-84
2023/04/18 10:05:44;;;;;;;0.68;0.68;;;14.30;99.90;;;;;;5073212;28;20131;-84
2023/04/18 10:08:12;;;;;;;1.88;0.50;;;14.30;99.90;;;;;;5060041;28;20048;-84
2023/04/18 10:10:38;;;;;;;4.13;1.35;;;14.30;99.90;;;;;;5043325;28;20056;-84
2023/04/18 10:13:07;;;;;;;2.40;1.17;;;14.40;99.90;;;;;;5026586;28;20045;-84
2023/04/18 10:15:33;;;;;;;0.32;0.32;;;14.30;99.90;;;;;;5059604;28;20049;-84
2023/04/18 10:18:02;;;;;;;1.10;0.50;;;14.40;99.90;;;;;;5059529;28;20040;-84
2023/04/18 10:20:29;;;;;;;1.48;0.70;;;14.40;99.90;;;;;;5076410;28;20088;-84
2023/04/18 10:22:57;;;;;;;0.60;0.60;;;14.10;99.90;;;;;;5059725;28;20044;-84
2023/04/18 10:25:37;;;;;;;0.95;0.95;;;13.80;99.90;;;;;;5043108;28;20381;-84
2023/04/18 10:28:05;;;;;;;0.63;0.52;;;13.50;99.90;;;;;;5059410;28;20060;-85
2023/04/18 10:30:39;;;;;;;0.10;0.10;;;13.30;99.90;;;;;;5059308;28;20044;-84
2023/04/18 10:33:37;;;;;;;0.28;0.28;;;13.20;99.90;;;;;;5075641;28;20040;-84
2023/04/18 10:36:11;;;;;;;0.20;0.20;;;13.50;99.90;;;;;;5075918;28;20056;-84
2023/04/18 10:38:44;;;;;;;0.05;0.05;;;13.60;99.90;;;;;;5059023;28;20051;-84
2023/04/18 10:41:20;;;;;;;0.10;0.10;;;13.70;99.90;;;;;;5059216;28;20519;-84
2023/04/18 10:44:05;;;;;;;0.15;0.10;;;13.90;99.90;;;;;;5059420;28;20127;-84
2023/04/18 10:46:31;;;;;;;0.10;0.10;;;14.10;99.90;;;;;;5075917;28;20369;-84
2023/04/18 10:49:15;;;;;;;1.02;0.50;;;14.40;99.90;;;;;;5042615;28;20037;-84
2023/04/18 10:51:43;;;;;;;0.00;0.00;;;14.40;99.90;;;;;;5076201;28;20052;-83
2023/04/18 10:54:12;;;;;;;0.17;0.13;;;14.60;99.90;;;;;;5075690;28;20573;-84
2023/04/18 10:56:38;;;;;;;0.35;0.35;;;14.90;99.90;;;;;;5059077;28;20048;-84
2023/04/18 10:59:04;;;;;;;0.35;0.35;;;15.10;99.90;;;;;;5075384;28;20041;-84
2023/04/18 11:01:31;;;;;;;0.20;0.20;;;15.20;98.40;;;;;;5075431;28;20052;-84
2023/04/18 11:03:58;;;;;;;0.75;0.75;;;15.20;29.30;;;;;;5025767;28;20432;-84
2023/04/18 11:06:27;;;;;;;0.30;0.30;;;15.30;1.00;;;;;;5075646;28;20052;-83
2023/04/18 11:09:12;;;;;;;1.48;1.02;;;15.30;1.00;;;;;;5058748;28;20052;-84
2023/04/18 11:11:38;;;;;;;3.33;0.65;;;15.60;99.90;;;;;;5075314;28;20539;-84
2023/04/18 11:14:04;;;;;;;0.30;0.30;;;15.80;99.90;;;;;;5058672;28;20488;-84
2023/04/18 11:16:32;;;;;;;0.03;0.03;;;16.30;99.90;;;;;;5041805;28;20044;-84
2023/04/18 11:18:58;;;;;;;0.55;0.17;;;16.50;51.00;;;;;;5040605;28;20122;-84
2023/04/18 11:21:27;;;;;;;0.15;0.15;;;16.60;1.00;;;;;;5042100;28;20411;-84
2023/04/18 11:23:57;;;;;;;0.28;0.28;;;16.20;99.90;;;;;;5075123;28;20056;-84
2023/04/18 11:26:27;;;;;;;2.05;1.10;;;15.90;99.90;;;;;;5075092;28;20049;-82
2023/04/18 11:28:57;;;;;;;2.50;0.50;;;15.60;99.90;;;;;;5058030;28;20049;-83
2023/04/18 11:31:23;;;;;;;0.30;0.30;;;15.40;1.00;;;;;;5058381;28;20444;-83
2023/04/18 11:33:50;;;;;;;0.28;0.28;;;15.30;99.90;;;;;;5074482;28;20091;-83
2023/04/18 11:36:16;;;;;;;0.88;0.35;;;15.10;1.00;;;;;;5058056;28;20052;-83
2023/04/18 11:38:42;;;;;;;0.38;0.38;;;15.10;99.90;;;;;;5041253;28;20110;-83
2023/04/18 11:41:12;;;;;;;0.10;0.10;;;15.40;1.00;;;;;;5057631;28;20056;-83
2023/04/18 11:43:44;;;;;;;0.52;0.52;;;15.60;99.90;;;;;;5058594;28;20048;-83
2023/04/18 11:46:14;;;;;;;0.05;0.05;;;15.50;99.90;;;;;;5074699;28;20569;-83
2023/04/18 11:48:42;;;;;;;0.10;0.10;;;15.50;99.90;;;;;;5058372;28;20044;-83
2023/04/18 11:51:28;;;;;;;0.20;0.10;;;15.40;4.50;;;;;;5057941;28;20084;-83
2023/04/18 11:53:54;;;;;;;0.43;0.30;;;15.20;1.00;;;;;;5057752;28;20381;-83
2023/04/18 11:56:20;;;;;;;0.22;0.10;;;15.00;1.00;;;;;;5057665;28;20118;-82
2023/04/18 11:58:46;;;;;;;0.40;0.40;;;14.80;99.90;;;;;;5041037;28;20048;-83
2023/04/18 12:01:16;;;;;;;0.17;0.15;;;14.70;1.00;;;;;;5040917;28;20044;-83
2023/04/18 12:03:57;;;;;;;0.10;0.10;;;14.70;99.90;;;;;;5040755;28;20056;-83
2023/04/18 12:06:23;;;;;;;0.43;0.40;;;14.60;99.90;;;;;;5042951;28;20048;-83
2023/04/18 12:08:49;;;;;;;0.30;0.30;;;14.70;79.50;;;;;;5057867;28;20043;-83
2023/04/18 12:11:20;;;;;;;0.10;0.10;;;14.70;77.90;;;;;;5040935;28;20099;-83
2023/04/18 12:13:46;;;;;;;0.30;0.20;;;14.70;1.00;;;;;;5057845;28;20098;-83
2023/04/18 12:16:11;;;;;;;0.17;0.10;;;14.70;1.00;;;;;;5057657;28;20488;-83
2023/04/18 12:18:38;;;;;;;0.22;0.22;;;14.90;99.90;;;;;;5057169;28;20040;-83
2023/04/18 12:21:04;;;;;;;0.47;0.20;;;15.00;1.00;;;;;;5040677;28;20660;-83
2023/04/18 12:23:41;;;;;;;0.20;0.20;;;15.20;1.00;;;;;;5057329;28;20477;-83
2023/04/18 12:26:10;;;;;;;0.80;0.63;;;15.50;99.90;;;;;;5040828;28;20049;-83
2023/04/18 12:28:36;;;;;;;1.00;0.50;;;15.70;54.10;;;;;;5073683;28;20044;-83
2023/04/18 12:31:06;;;;;;;0.10;0.10;;;15.60;1.00;;;;;;5073982;28;20050;-83
2023/04/18 12:33:32;;;;;;;0.52;0.35;;;15.70;1.00;;;;;;5073100;28;20052;-82
2023/04/18 12:35:58;;;;;;;0.43;0.38;;;16.00;99.90;;;;;;5074185;28;20114;-83
2023/04/18 12:38:24;;;;;;;0.50;0.50;;;16.20;99.90;;;;;;5056983;28;20048;-83
2023/04/18 12:40:50;;;;;;;0.20;0.20;;;16.40;99.90;;;;;;5023664;28;20060;-83
2023/04/18 12:43:17;;;;;;;1.90;0.47;;;16.30;7.40;;;;;;5056799;28;20563;-83
2023/04/18 12:45:45;;;;;;;0.20;0.20;;;16.40;14.80;;;;;;5056594;28;20497;-83
2023/04/18 12:48:11;;;;;;;3.10;0.45;;;16.60;54.90;;;;;;5040014;28;20505;-83
2023/04/18 12:50:36;;;;;;;0.05;0.05;;;16.50;99.90;;;;;;5057402;28;20045;-83
2023/04/18 12:53:03;;;;;;;0.13;0.03;;;16.50;99.90;;;;;;5040644;28;20068;-83
2023/04/18 12:55:29;;;;;;;0.55;0.30;;;16.60;1.00;;;;;;5073384;28;20105;-83
2023/04/18 12:57:55;;;;;;;0.40;0.10;;;16.90;99.90;;;;;;5039878;28;20044;-83